createdAt,value
2024-03-20T00:00:47.540Z,2.31
2024-03-20T00:03:39.353Z,2.32
2024-03-20T00:06:11.048Z,2.34
2024-03-20T00:08:42.829Z,2.37
2024-03-20T00:11:14.578Z,2.38
2024-03-20T00:13:46.335Z,2.37
2024-03-20T00:16:18.128Z,2.37
2024-03-20T00:18:49.768Z,2.36
2024-03-20T00:21:22.905Z,2.37
2024-03-20T00:23:54.532Z,2.37
2024-03-20T00:26:26.268Z,2.36
2024-03-20T00:28:58.097Z,2.35
2024-03-20T00:31:29.619Z,2.35
2024-03-20T00:34:01.527Z,2.35
2024-03-20T00:36:33.541Z,2.34
2024-03-20T00:39:07.009Z,2.33
2024-03-20T00:41:38.644Z,2.30
2024-03-20T00:44:10.460Z,2.26
2024-03-20T00:46:42.200Z,2.23
2024-03-20T00:49:14.032Z,2.19
2024-03-20T00:51:45.809Z,2.17
2024-03-20T00:54:17.339Z,2.14
2024-03-20T00:56:48.880Z,2.10
2024-03-20T00:59:21.568Z,2.07
2024-03-20T01:01:53.021Z,2.04
2024-03-20T01:04:25.028Z,2.03
2024-03-20T01:06:56.892Z,2.00
2024-03-20T01:09:28.676Z,1.98
2024-03-20T01:12:00.509Z,1.96
2024-03-20T01:14:32.174Z,1.93
2024-03-20T01:17:03.777Z,1.92
2024-03-20T01:19:35.619Z,1.91
2024-03-20T01:22:07.575Z,1.89
2024-03-20T01:24:39.450Z,1.85
2024-03-20T01:27:11.117Z,1.83
2024-03-20T01:29:42.900Z,1.81
2024-03-20T01:32:14.559Z,1.80
2024-03-20T01:34:46.344Z,1.77
2024-03-20T01:37:17.993Z,1.74
2024-03-20T01:39:49.803Z,1.74
2024-03-20T01:42:21.356Z,1.71
2024-03-20T01:45:10.861Z,1.70
2024-03-20T01:47:43.446Z,1.67
2024-03-20T01:50:16.681Z,1.65
2024-03-20T01:52:56.019Z,1.63
2024-03-20T01:55:27.871Z,1.62
2024-03-20T01:57:59.569Z,1.61
2024-03-20T02:00:31.583Z,1.61
2024-03-20T02:03:04.868Z,1.58
2024-03-20T02:05:36.747Z,1.58
2024-03-20T02:08:09.237Z,1.57
2024-03-20T02:10:41.061Z,1.54
2024-03-20T02:13:12.827Z,1.52
2024-03-20T02:15:44.592Z,1.52
2024-03-20T02:18:16.359Z,1.50
2024-03-20T02:20:48.064Z,1.48
2024-03-20T02:23:20.254Z,1.47
2024-03-20T02:25:51.859Z,1.47
2024-03-20T02:28:23.607Z,1.46
2024-03-20T02:30:55.202Z,1.43
2024-03-20T02:33:27.085Z,1.40
2024-03-20T02:35:59.008Z,1.38
2024-03-20T02:38:33.370Z,1.37
2024-03-20T02:41:06.109Z,1.36
2024-03-20T02:43:38.274Z,1.34
2024-03-20T02:46:09.955Z,1.33
2024-03-20T02:48:41.725Z,1.32
2024-03-20T02:51:13.268Z,1.31
2024-03-20T02:53:44.941Z,1.31
2024-03-20T02:56:17.031Z,1.30
2024-03-20T02:58:48.829Z,1.28
2024-03-20T03:01:20.459Z,1.27
2024-03-20T03:03:52.630Z,1.28
2024-03-20T03:06:24.413Z,1.26
2024-03-20T03:08:56.079Z,1.27
2024-03-20T03:11:28.444Z,1.26
2024-03-20T03:14:00.122Z,1.25
2024-03-20T03:16:31.924Z,1.22
2024-03-20T03:19:05.560Z,1.20
2024-03-20T03:21:38.173Z,1.18
2024-03-20T03:24:10.184Z,1.17
2024-03-20T03:26:42.292Z,1.17
2024-03-20T03:29:13.916Z,1.16
2024-03-20T03:31:45.776Z,1.16
2024-03-20T03:34:18.729Z,1.15
2024-03-20T03:36:50.455Z,1.14
2024-03-20T03:39:22.084Z,1.15
2024-03-20T03:41:53.913Z,1.15
2024-03-20T03:44:25.926Z,1.15
2024-03-20T03:46:57.721Z,1.13
2024-03-20T03:49:29.409Z,1.11
2024-03-20T03:52:01.176Z,1.09
2024-03-20T03:54:32.744Z,1.07
2024-03-20T03:57:05.102Z,1.06
2024-03-20T03:59:36.789Z,1.05
2024-03-20T04:02:09.807Z,1.05
2024-03-20T04:04:41.645Z,1.03
2024-03-20T04:07:13.494Z,1.01
2024-03-20T04:09:45.137Z,0.99
2024-03-20T04:12:17.014Z,0.99
2024-03-20T04:14:48.596Z,0.98
2024-03-20T04:17:20.247Z,0.98
2024-03-20T04:19:51.921Z,0.98
2024-03-20T04:22:23.673Z,0.97
2024-03-20T04:24:55.500Z,0.96
2024-03-20T04:27:27.196Z,0.95
2024-03-20T04:29:58.955Z,0.94
2024-03-20T04:32:31.510Z,0.92
2024-03-20T04:35:03.464Z,0.92
2024-03-20T04:37:35.316Z,0.91
2024-03-20T04:40:08.581Z,0.89
2024-03-20T04:42:40.481Z,0.90
2024-03-20T04:45:14.064Z,0.89
2024-03-20T04:47:45.875Z,0.92
2024-03-20T04:50:17.576Z,0.92
2024-03-20T04:53:01.724Z,0.92
2024-03-20T04:55:33.400Z,0.94
2024-03-20T04:58:05.364Z,0.97
2024-03-20T05:00:37.466Z,0.99
2024-03-20T05:03:09.348Z,1.02
2024-03-20T05:05:41.011Z,1.05
2024-03-20T05:08:12.923Z,1.11
2024-03-20T05:10:44.611Z,1.13
2024-03-20T05:13:16.504Z,1.16
2024-03-20T05:15:48.184Z,1.17
2024-03-20T05:18:20.057Z,1.20
2024-03-20T05:20:51.803Z,1.24
2024-03-20T05:23:23.876Z,1.30
2024-03-20T05:25:59.136Z,1.36
2024-03-20T05:28:29.268Z,1.43
2024-03-20T05:31:01.083Z,1.49
2024-03-20T05:33:32.840Z,1.56
2024-03-20T05:36:04.912Z,1.63
2024-03-20T05:38:36.740Z,1.70
2024-03-20T05:41:08.401Z,1.74
2024-03-20T05:43:39.992Z,1.80
2024-03-20T05:46:11.766Z,1.86
2024-03-20T05:48:44.389Z,1.91
2024-03-20T05:51:16.192Z,1.96
2024-03-20T05:53:47.778Z,2.00
2024-03-20T05:56:19.863Z,2.04
2024-03-20T05:58:52.543Z,2.09
2024-03-20T06:01:25.054Z,2.12
2024-03-20T06:03:56.807Z,2.13
2024-03-20T06:06:29.420Z,2.12
2024-03-20T06:09:16.785Z,2.16
2024-03-20T06:11:48.670Z,2.22
2024-03-20T06:14:20.522Z,2.25
2024-03-20T06:16:52.308Z,2.26
2024-03-20T06:19:24.450Z,2.30
2024-03-20T06:21:56.230Z,2.34
2024-03-20T06:24:27.960Z,2.41
2024-03-20T06:26:59.524Z,2.45
2024-03-20T06:29:31.729Z,2.48
2024-03-20T06:32:03.454Z,2.46
2024-03-20T06:34:35.287Z,2.41
2024-03-20T06:37:11.495Z,2.41
2024-03-20T06:39:43.348Z,2.44
2024-03-20T06:42:17.545Z,2.45
2024-03-20T06:44:49.376Z,2.49
2024-03-20T06:47:24.406Z,2.53
2024-03-20T06:49:57.061Z,2.55
2024-03-20T06:52:28.943Z,2.58
2024-03-20T06:55:00.887Z,2.61
2024-03-20T06:57:32.646Z,2.63
2024-03-20T07:00:08.194Z,2.65
2024-03-20T07:02:40.293Z,2.66
2024-03-20T07:05:15.821Z,2.70
2024-03-20T07:07:47.927Z,2.75
2024-03-20T07:10:19.854Z,2.81
2024-03-20T07:12:51.730Z,2.88
2024-03-20T07:15:23.566Z,2.91
2024-03-20T07:17:55.371Z,2.93
2024-03-20T07:20:27.998Z,2.94
2024-03-20T07:23:00.002Z,2.97
2024-03-20T07:25:33.597Z,2.98
2024-03-20T07:28:05.630Z,2.98
2024-03-20T07:30:37.336Z,2.98
2024-03-20T07:33:10.615Z,2.98
2024-03-20T07:35:48.676Z,3.02
2024-03-20T07:38:20.197Z,3.05
2024-03-20T07:40:55.669Z,3.11
2024-03-20T07:43:27.288Z,3.16
2024-03-20T07:45:58.992Z,3.21
2024-03-20T07:48:30.687Z,3.25
2024-03-20T07:51:02.566Z,3.30
2024-03-20T07:53:34.239Z,3.36
2024-03-20T07:56:06.544Z,3.43
2024-03-20T07:58:38.948Z,3.51
2024-03-20T08:01:12.739Z,3.57
2024-03-20T08:03:45.503Z,3.66
2024-03-20T08:06:17.246Z,3.71
2024-03-20T08:08:48.810Z,3.75
2024-03-20T08:11:20.627Z,3.80
2024-03-20T08:13:52.464Z,3.86
2024-03-20T08:16:24.111Z,3.92
2024-03-20T08:18:55.925Z,3.98
2024-03-20T08:21:28.226Z,4.03
2024-03-20T08:24:00.570Z,4.09
2024-03-20T08:26:32.808Z,4.16
2024-03-20T08:29:04.556Z,4.23
2024-03-20T08:31:36.434Z,4.30
2024-03-20T08:34:08.197Z,4.37
2024-03-20T08:36:40.077Z,4.45
2024-03-20T08:39:12.038Z,4.54
2024-03-20T08:41:44.013Z,4.63
2024-03-20T08:44:15.509Z,4.75
2024-03-20T08:46:47.256Z,4.97
2024-03-20T08:49:19.047Z,5.20
2024-03-20T08:51:50.886Z,5.37
2024-03-20T08:54:22.621Z,5.49
2024-03-20T08:56:54.351Z,5.57
2024-03-20T08:59:26.162Z,5.65
2024-03-20T09:01:57.893Z,5.78
2024-03-20T09:04:29.671Z,5.87
2024-03-20T09:07:01.524Z,5.91
2024-03-20T09:09:36.387Z,5.93
2024-03-20T09:12:57.092Z,5.95
2024-03-20T09:15:31.978Z,5.99
2024-03-20T09:18:03.618Z,6.05
2024-03-20T09:20:35.321Z,6.11
2024-03-20T09:23:07.752Z,6.15
2024-03-20T09:25:39.413Z,6.22
2024-03-20T09:28:11.191Z,6.30
2024-03-20T09:30:43.258Z,6.39
2024-03-20T09:33:15.205Z,6.45
2024-03-20T09:35:46.757Z,6.47
2024-03-20T09:38:18.224Z,6.52
2024-03-20T09:40:50.828Z,6.57
2024-03-20T09:43:23.886Z,6.63
2024-03-20T09:45:58.067Z,6.70
2024-03-20T09:48:37.163Z,6.74
2024-03-20T09:51:14.067Z,6.79
2024-03-20T09:53:47.497Z,6.83
2024-03-20T09:56:22.034Z,6.87
2024-03-20T09:58:54.822Z,6.87
2024-03-20T10:01:26.938Z,6.92
2024-03-20T10:03:59.559Z,7.03
2024-03-20T10:06:32.692Z,7.16
2024-03-20T10:09:08.594Z,7.30
2024-03-20T10:11:40.039Z,7.46
2024-03-20T10:14:14.624Z,7.51
2024-03-20T10:16:49.672Z,7.52
2024-03-20T10:19:26.646Z,7.59
2024-03-20T10:21:58.257Z,7.72
2024-03-20T10:24:32.232Z,7.74
2024-03-20T10:27:06.737Z,7.76
2024-03-20T10:29:40.891Z,7.77
2024-03-20T10:32:13.877Z,7.74
2024-03-20T10:34:47.811Z,7.84
2024-03-20T10:37:20.534Z,7.94
2024-03-20T10:39:54.371Z,7.97
2024-03-20T10:42:26.714Z,7.97
2024-03-20T10:44:59.189Z,8.05
2024-03-20T10:47:31.027Z,8.17
2024-03-20T10:50:04.275Z,8.21
2024-03-20T10:52:36.648Z,8.27
2024-03-20T10:55:12.562Z,8.33
2024-03-20T10:57:44.179Z,8.24
2024-03-20T11:00:20.918Z,8.19
2024-03-20T11:02:52.727Z,8.22
2024-03-20T11:05:41.733Z,8.27
2024-03-20T11:08:13.528Z,8.31
2024-03-20T11:10:50.446Z,8.34
2024-03-20T11:13:25.258Z,8.29
2024-03-20T11:15:56.934Z,8.24
2024-03-20T11:18:28.894Z,8.24
2024-03-20T11:21:01.692Z,8.22
2024-03-20T11:23:34.581Z,8.17
2024-03-20T11:26:07.939Z,8.07
2024-03-20T11:28:39.642Z,8.07
2024-03-20T11:31:11.413Z,8.09
2024-03-20T11:33:44.344Z,8.10
2024-03-20T11:36:19.640Z,8.10
2024-03-20T11:38:51.876Z,8.09
2024-03-20T11:41:23.581Z,8.11
2024-03-20T11:43:55.187Z,8.15
2024-03-20T11:46:27.146Z,8.24
2024-03-20T11:48:59.073Z,8.37
2024-03-20T11:51:30.949Z,8.49
2024-03-20T11:54:04.780Z,8.58
2024-03-20T11:56:38.428Z,8.69
2024-03-20T11:59:10.790Z,8.78
2024-03-20T12:01:42.506Z,8.83
2024-03-20T12:04:14.560Z,8.76
2024-03-20T12:06:46.552Z,8.69
2024-03-20T12:09:18.823Z,8.67
2024-03-20T12:11:50.425Z,8.60
2024-03-20T12:14:22.249Z,8.53
2024-03-20T12:16:54.752Z,8.51
2024-03-20T12:19:26.297Z,8.50
2024-03-20T12:21:58.101Z,8.48
2024-03-20T12:24:29.699Z,8.51
2024-03-20T12:27:01.476Z,8.57
2024-03-20T12:29:33.501Z,8.67
2024-03-20T12:32:05.824Z,8.74
2024-03-20T12:34:38.159Z,8.87
2024-03-20T12:37:12.298Z,9.02
2024-03-20T12:39:45.664Z,9.23
2024-03-20T12:42:17.447Z,9.44
2024-03-20T12:44:49.225Z,9.49
2024-03-20T12:47:21.145Z,9.58
2024-03-20T12:49:53.880Z,9.76
2024-03-20T12:52:26.511Z,9.99
2024-03-20T12:54:59.531Z,10.15
2024-03-20T12:57:31.140Z,10.24
2024-03-20T13:00:03.283Z,10.35
2024-03-20T13:02:35.735Z,10.40
2024-03-20T13:05:10.561Z,10.44
2024-03-20T13:07:42.581Z,10.52
2024-03-20T13:10:14.899Z,10.61
2024-03-20T13:12:46.822Z,10.57
2024-03-20T13:15:18.445Z,10.44
2024-03-20T13:17:50.349Z,10.29
2024-03-20T13:20:22.306Z,10.14
2024-03-20T13:22:53.951Z,9.95
2024-03-20T13:25:30.280Z,9.92
2024-03-20T13:28:02.809Z,9.89
2024-03-20T13:30:34.818Z,9.84
2024-03-20T13:33:07.007Z,9.83
2024-03-20T13:35:38.588Z,9.77
2024-03-20T13:38:15.313Z,9.73
2024-03-20T13:40:52.352Z,9.74
2024-03-20T13:43:40.290Z,9.73
2024-03-20T13:46:13.047Z,9.69
2024-03-20T13:48:45.099Z,9.58
2024-03-20T13:51:18.972Z,9.48
2024-03-20T13:53:52.518Z,9.46
2024-03-20T13:56:24.364Z,9.44
2024-03-20T13:58:56.173Z,9.42
2024-03-20T14:01:28.391Z,9.43
2024-03-20T14:04:00.805Z,9.45
2024-03-20T14:06:32.328Z,9.50
2024-03-20T14:09:04.116Z,9.59
2024-03-20T14:11:35.742Z,9.67
2024-03-20T14:14:07.647Z,9.73
2024-03-20T14:16:39.666Z,9.78
2024-03-20T14:19:11.442Z,9.77
2024-03-20T14:21:43.042Z,9.78
2024-03-20T14:24:16.948Z,9.88
2024-03-20T14:26:49.377Z,9.92
2024-03-20T14:29:21.003Z,9.97
2024-03-20T14:31:52.976Z,9.95
2024-03-20T14:34:25.111Z,9.89
2024-03-20T14:36:56.937Z,9.86
2024-03-20T14:39:29.284Z,9.85
2024-03-20T14:42:00.925Z,9.84
2024-03-20T14:44:33.475Z,9.81
2024-03-20T14:47:07.210Z,9.79
2024-03-20T14:49:38.936Z,9.77
2024-03-20T14:52:15.845Z,9.78
2024-03-20T14:54:47.490Z,9.77
2024-03-20T14:57:19.502Z,9.74
2024-03-20T14:59:51.149Z,9.69
2024-03-20T15:02:29.562Z,9.63
2024-03-20T15:05:01.144Z,9.57
2024-03-20T15:07:33.322Z,9.52
2024-03-20T15:10:05.266Z,9.48
2024-03-20T15:12:36.949Z,9.45
2024-03-20T15:15:10.896Z,9.40
2024-03-20T15:17:43.052Z,9.32
2024-03-20T15:20:14.605Z,9.26
2024-03-20T15:22:46.879Z,9.23
2024-03-20T15:25:18.638Z,9.19
2024-03-20T15:27:51.024Z,9.14
2024-03-20T15:30:22.697Z,9.08
2024-03-20T15:32:54.424Z,9.02
2024-03-20T15:35:26.235Z,8.93
2024-03-20T15:37:58.115Z,8.83
2024-03-20T15:40:29.793Z,8.76
2024-03-20T15:43:01.395Z,8.71
2024-03-20T15:45:32.873Z,8.68
2024-03-20T15:48:06.596Z,8.65
2024-03-20T15:50:39.415Z,8.61
2024-03-20T15:53:17.237Z,8.56
2024-03-20T15:58:50.613Z,8.47
2024-03-20T16:01:21.697Z,8.34
2024-03-20T16:03:51.033Z,8.23
2024-03-20T16:06:20.530Z,8.13
2024-03-20T16:08:49.262Z,8.00
2024-03-20T16:11:18.084Z,7.91
2024-03-20T16:13:48.028Z,7.82
2024-03-20T16:16:19.992Z,7.70
2024-03-20T16:18:48.939Z,7.57
2024-03-20T16:21:17.563Z,7.43
2024-03-20T16:23:46.300Z,7.31
2024-03-20T16:26:15.801Z,7.21
2024-03-20T16:28:45.426Z,7.11
2024-03-20T16:31:14.270Z,7.01
2024-03-20T16:33:42.985Z,6.92
2024-03-20T16:36:13.847Z,6.83
2024-03-20T16:38:44.039Z,6.75
2024-03-20T16:41:19.919Z,6.69
2024-03-20T16:43:54.827Z,6.62
2024-03-20T16:46:23.726Z,6.54
2024-03-20T16:48:52.482Z,6.48
2024-03-20T16:51:21.284Z,6.40
2024-03-20T16:53:49.937Z,6.33
2024-03-20T16:56:18.667Z,6.27
2024-03-20T16:58:47.134Z,6.22
2024-03-20T17:01:15.901Z,6.18
2024-03-20T17:03:45.121Z,6.14
2024-03-20T17:06:13.540Z,6.08
2024-03-20T17:08:42.639Z,6.04
2024-03-20T17:11:11.331Z,5.99
2024-03-20T17:13:40.059Z,5.95
2024-03-20T17:16:08.873Z,5.92
2024-03-20T17:18:37.491Z,5.87
2024-03-20T17:21:07.650Z,5.83
2024-03-20T17:23:36.248Z,5.79
2024-03-20T17:26:05.515Z,5.74
2024-03-20T17:28:35.295Z,5.71
2024-03-20T17:31:04.374Z,5.76
2024-03-20T17:33:33.062Z,5.78
2024-03-20T17:36:07.349Z,5.77
2024-03-20T17:38:36.134Z,5.74
2024-03-20T17:41:05.112Z,5.73
2024-03-20T17:43:34.031Z,5.72
2024-03-20T17:46:04.239Z,5.70
2024-03-20T17:48:33.175Z,5.66
2024-03-20T17:51:02.756Z,5.63
2024-03-20T17:53:32.038Z,5.58
2024-03-20T17:56:00.505Z,5.52
2024-03-20T17:58:29.298Z,5.48
2024-03-20T18:00:57.899Z,5.43
2024-03-20T18:03:26.670Z,5.37
2024-03-20T18:05:55.696Z,5.32
2024-03-20T18:08:24.391Z,5.27
2024-03-20T18:10:53.281Z,5.23
2024-03-20T18:13:22.489Z,5.21
2024-03-20T18:15:55.219Z,5.24
2024-03-20T18:18:24.698Z,5.24
2024-03-20T18:20:53.381Z,5.25
2024-03-20T18:23:22.826Z,5.22
2024-03-20T18:25:51.476Z,5.19
2024-03-20T18:28:20.244Z,5.17
2024-03-20T18:30:49.600Z,5.15
2024-03-20T18:33:18.587Z,5.11
2024-03-20T18:35:47.585Z,5.07
2024-03-20T18:38:16.410Z,5.04
2024-03-20T18:40:45.686Z,5.00
2024-03-20T18:43:14.209Z,4.97
2024-03-20T18:45:42.932Z,4.94
2024-03-20T18:48:14.271Z,4.91
2024-03-20T18:50:43.494Z,4.95
2024-03-20T18:53:12.020Z,4.97
2024-03-20T18:55:40.870Z,4.97
2024-03-20T18:58:09.384Z,4.94
2024-03-20T19:00:38.100Z,4.94
2024-03-20T19:03:06.737Z,4.92
2024-03-20T19:05:36.023Z,4.90
2024-03-20T19:08:05.846Z,4.88
2024-03-20T19:10:34.319Z,4.83
2024-03-20T19:13:03.046Z,4.78
2024-03-20T19:15:32.843Z,4.73
2024-03-20T19:18:01.808Z,4.69
2024-03-20T19:20:30.689Z,4.65
2024-03-20T19:22:59.370Z,4.67
2024-03-20T19:25:32.553Z,4.65
2024-03-20T19:28:01.384Z,4.65
2024-03-20T19:30:30.072Z,4.66
2024-03-20T19:33:00.722Z,4.64
2024-03-20T19:35:29.336Z,4.64
2024-03-20T19:37:58.379Z,4.64
2024-03-20T19:40:28.143Z,4.61
2024-03-20T19:42:56.785Z,4.59
2024-03-20T19:45:25.816Z,4.57
2024-03-20T19:47:54.612Z,4.55
2024-03-20T19:50:23.332Z,4.54
2024-03-20T19:52:52.286Z,4.54
2024-03-20T19:55:21.194Z,4.61
2024-03-20T19:57:50.293Z,4.63
2024-03-20T20:00:22.259Z,4.67
2024-03-20T20:02:53.931Z,4.70
2024-03-20T20:05:22.675Z,4.69
2024-03-20T20:07:51.518Z,4.71
2024-03-20T20:10:20.406Z,4.73
2024-03-20T20:12:49.464Z,4.75
2024-03-20T20:15:19.683Z,4.77
2024-03-20T20:17:48.352Z,4.74
2024-03-20T20:20:18.847Z,4.71
2024-03-20T20:22:47.997Z,4.68
2024-03-20T20:25:18.162Z,4.65
2024-03-20T20:27:49.119Z,4.62
2024-03-20T20:30:18.774Z,4.59
2024-03-20T20:32:48.552Z,4.65
2024-03-20T20:35:17.092Z,4.68
2024-03-20T20:37:45.832Z,4.70
2024-03-20T20:40:16.839Z,4.70
2024-03-20T20:42:45.572Z,4.68
2024-03-20T20:45:14.264Z,4.68
2024-03-20T20:47:42.911Z,4.68
2024-03-20T20:50:12.232Z,4.69
2024-03-20T20:52:40.847Z,4.68
2024-03-20T20:55:13.195Z,4.67
2024-03-20T20:57:42.005Z,4.64
2024-03-20T21:00:14.169Z,4.60
2024-03-20T21:03:01.074Z,4.57
2024-03-20T21:05:44.431Z,4.55
2024-03-20T21:08:31.482Z,4.60
2024-03-20T21:11:26.659Z,4.61
2024-03-20T21:14:13.362Z,4.62
2024-03-20T21:17:00.383Z,4.60
2024-03-20T21:19:47.703Z,4.62
2024-03-20T21:22:16.732Z,4.65
2024-03-20T21:24:46.004Z,4.64
2024-03-20T21:27:14.687Z,4.62
2024-03-20T21:29:43.594Z,4.61
2024-03-20T21:32:12.427Z,4.60
2024-03-20T21:34:41.465Z,4.57
2024-03-20T21:37:11.054Z,4.54
2024-03-20T21:39:40.842Z,4.59
2024-03-20T21:42:10.788Z,4.60
2024-03-20T21:44:40.635Z,4.61
2024-03-20T21:47:12.058Z,4.63
2024-03-20T21:49:41.777Z,4.63
2024-03-20T21:52:10.829Z,4.62
2024-03-20T21:54:39.573Z,4.63
2024-03-20T21:57:08.218Z,4.62
2024-03-20T21:59:39.204Z,4.60
2024-03-20T22:02:16.841Z,4.58
2024-03-20T22:04:45.647Z,4.55
2024-03-20T22:07:14.372Z,4.52
2024-03-20T22:10:05.920Z,4.49
2024-03-20T22:12:32.734Z,4.45
2024-03-20T22:15:01.258Z,4.44
2024-03-20T22:17:31.271Z,4.50
2024-03-20T22:20:00.193Z,4.53
2024-03-20T22:22:28.893Z,4.55
2024-03-20T22:24:57.579Z,4.59
2024-03-20T22:27:26.384Z,4.59
2024-03-20T22:29:54.890Z,4.60
2024-03-20T22:32:23.771Z,4.61
2024-03-20T22:34:52.333Z,4.61
2024-03-20T22:37:21.850Z,4.61
2024-03-20T22:39:50.480Z,4.60
2024-03-20T22:42:19.362Z,4.58
2024-03-20T22:44:47.885Z,4.56
2024-03-20T22:47:18.452Z,4.55
2024-03-20T22:49:48.827Z,4.55
2024-03-20T22:52:17.593Z,4.61
2024-03-20T22:54:46.199Z,4.63
2024-03-20T22:57:15.043Z,4.65
2024-03-20T22:59:43.591Z,4.66
2024-03-20T23:02:12.058Z,4.65
2024-03-20T23:04:42.499Z,4.64
2024-03-20T23:07:11.167Z,4.62
2024-03-20T23:09:39.847Z,4.59
2024-03-20T23:12:10.255Z,4.59
2024-03-20T23:14:39.186Z,4.58
2024-03-20T23:17:10.745Z,4.58
2024-03-20T23:19:39.527Z,4.55
2024-03-20T23:22:08.166Z,4.54
2024-03-20T23:24:36.876Z,4.60
2024-03-20T23:27:05.921Z,4.64
2024-03-20T23:29:34.715Z,4.67
2024-03-20T23:32:04.215Z,4.70
2024-03-20T23:34:33.811Z,4.69
2024-03-20T23:37:02.800Z,4.69
2024-03-20T23:39:32.910Z,4.68
2024-03-20T23:42:02.826Z,4.67
2024-03-20T23:44:31.476Z,4.67
2024-03-20T23:47:00.191Z,4.66
2024-03-20T23:49:29.128Z,4.65
2024-03-20T23:51:58.223Z,4.62
2024-03-20T23:54:26.999Z,4.59
2024-03-20T23:56:55.665Z,4.59
2024-03-20T23:59:24.454Z,4.63
